Decoded Metar for LFLC (CLERMONT FERRAND in FRANCE) (IATA:CFE) | Meteo·Mobile Aviation Weather
aviador You're here:

LFLC Decoded Metar

CLERMONT FERRAND in FRANCE
Report Time2018-08-22 04:00:00
UTC Time2018-08-22 04:30:27
Flight Rules vfr VFR
Wind340° at 02 kt
W.Decomp.*RWY 01: 1.7 kt HW 1 kt LCW
RWY 26: 0.3 kt HW 2.0 kt RCW
W.Rank340° ranks 8
Current wind is below 340° avg. (5.6)
Visibility9999 m
Phenomena:N/A
Clouds:N/A
Expected CloudBase > 1,200 ft AGL from Temp-Dew spread
CeilingNone
Temp18°C (ISA +5)
Dew Point15°C (83% RH)
QNH1017 hPa
Density Alt1,785 ft
Elevation1,083 ft
Report Wrong Elevation
Raw Report
METAR LFLC 220400Z AUTO 34002KT CAVOK 18/15 Q1017 NOSIG=

Extra information for LFLC:More info

Metar Taf Metar & Taf Last 4 Metars F.Rules Stats Wind Profile Meteogram Temp Stats Airport Information Weather charts Add Link Nearby VenuesMetar ALERT Operation Metar Decoded Social comments